• Join FlightAware (Why Join?)
  • Login
  • US Flag 
07:09AM EDT


 

Airport Tracker/Info


-or-


 

Live Flight TrackerFlight Track Log ✈ DAL3698 ✈ 17-Apr-2013 ✈ KLAN - KMSP

Flight Track Log - Related Links

Times and Time Zones

All times are in EDT time to prevent confusion due to time zone crossing. See the DAL3698 flight status page for this flight to view local times or setup timezone preferences in your user account.

Time Position Orientation Groundspeed Altitude Reporting Facility
EDT Latitude Longitude Course Direction KTS MPH feet Rate Location/Type
07:19AM 42.7881 -84.5472 276° West 152 175 2,700  Level Cleveland Center
07:20AM 42.8356 -84.5586 350° North 190 219 4,200 2,160 Climbing Cleveland Center
07:21AM 42.7254 -84.9280 279° West  Level FlightAware Approximate
07:21AM 42.8272 -84.7069 266° West 259 298 8,300  Level Chicago Center
07:22AM 42.7415 -85.0487 283° West  Level FlightAware Approximate
07:22AM 42.8222 -84.8061 266° West 262 302 11,300  Level Chicago Center
07:23AM 42.7554 -85.1697 276° West  Level FlightAware Approximate
07:23AM 42.8181 -84.9108 267° West 270 311 12,600  Level Chicago Center
07:24AM 42.7655 -85.3014 276° West  Level FlightAware Approximate
07:24AM 42.8106 -85.0269 265° West 302 348 15,100  Level Chicago Center
07:25AM 42.8292 -85.1344 283° West 300 345 16,700 1,320 Climbing Chicago Center
07:26AM 42.8606 -85.2422 292° West 304 350 17,900 960 Climbing Chicago Center
07:27AM 42.8931 -85.3556 291° West 317 365 18,700 960 Climbing Chicago Center
07:28AM 42.9256 -85.4725 291° West 327 376 19,900 1,140 Climbing Chicago Center
07:29AM 42.9586 -85.5889 291° West 330 380 21,100 1,020 Climbing Chicago Center
07:30AM 42.9994 -85.7344 291° West 342 394 22,100 840 Climbing Chicago Center
07:31AM 43.0336 -85.8569 291° West 349 402 22,900 720 Climbing Chicago Center
07:32AM 43.0681 -85.9753 292° West 354 407 23,600 720 Climbing Chicago Center
07:33AM 43.1019 -86.1033 290° West 366 421 24,400 840 Climbing Chicago Center
07:34AM 43.1428 -86.2550 290° West 359 413 25,400 840 Climbing Chicago Center
07:35AM 43.1775 -86.3817 291° West 356 410 26,200 780 Climbing Chicago Center
07:36AM 43.2125 -86.5092 291° West 358 412 27,000 780 Climbing Chicago Center
07:37AM 43.2461 -86.6367 290° West 357 411 27,800 780 Climbing Chicago Center
07:39AM 43.2797 -86.7631 290° West 355 409 28,600 780 Climbing Chicago Center
07:40AM 43.3139 -86.8878 291° West 351 404 29,400 660 Climbing Chicago Center
07:41AM 43.3475 -87.0128 290° West 349 402 30,000 240 Climbing Chicago Center
07:42AM 43.3817 -87.1394 290° West 355 409 30,000  Level Chicago Center
07:43AM 43.4197 -87.2950 289° West 358 412 30,000  Level Chicago Center
07:44AM 43.4508 -87.4144 290° West 362 417 30,000  Level Chicago Center
07:45AM 43.4856 -87.5458 290° West 363 418 30,000  Level Chicago Center
07:46AM 43.5256 -87.7000 290° West 366 421 30,000  Level Chicago Center
07:47AM 43.5603 -87.8328 290° West 368 423 30,000  Level Chicago Center
07:48AM 43.5933 -87.9650 289° West 366 421 30,000  Level Chicago Center
07:49AM 43.6267 -88.0972 289° West 367 422 30,000  Level Chicago Center
07:50AM 43.6597 -88.2294 289° West 366 421 30,000  Level Chicago Center
07:51AM 43.6931 -88.3619 289° West 368 423 30,000  Level Chicago Center
07:52AM 43.7306 -88.5158 289° West 368 423 30,000  Level Minneapolis Center
07:53AM 43.7636 -88.6500 289° West 370 426 30,000  Level Chicago Center
07:54AM 43.7958 -88.7831 289° West 370 426 30,000  Level Minneapolis Center
07:55AM 43.8283 -88.9172 289° West 369 425 30,000  Level Chicago Center
07:56AM 43.8600 -89.0514 288° West 368 423 30,000  Level Chicago Center
07:57AM 43.8975 -89.2083 288° West 369 425 30,000  Level Minneapolis Center
07:58AM 43.9303 -89.3428 289° West 369 425 30,000  Level Minneapolis Center
07:59AM 43.9625 -89.4767 289° West 367 422 30,000  Level Minneapolis Center
08:00AM 43.9939 -89.6106 288° West 365 420 30,000  Level Minneapolis Center
08:01AM 44.0250 -89.7453 288° West 365 420 30,000  Level Minneapolis Center
08:02AM 44.0569 -89.8778 289° West 363 418 30,000  Level Minneapolis Center
08:03AM 44.1161 -90.0244 299° West 374 430 30,000  Level Minneapolis Center
08:04AM 44.1781 -90.1711 301° West 377 434 30,000 -120 Level Minneapolis Center
08:05AM 44.2303 -90.2978 300° West 377 434 29,800 -720 Descending Minneapolis Center
08:06AM 44.2869 -90.4306 301° West 391 450 28,600 -1,200 Descending Minneapolis Center
08:07AM 44.3444 -90.5692 300° West 406 467 27,400 -1,200 Descending Minneapolis Center
08:08AM 44.4039 -90.7044 302° West 409 471 26,200 -1,200 Descending Minneapolis Center
08:09AM 44.4617 -90.8433 300° West 412 474 25,000 -1,080 Descending Minneapolis Center
08:10AM 44.5178 -90.9797 300° West 417 480 24,000 -540 Descending Minneapolis Center
08:11AM 44.5761 -91.1183 301° West 416 479 24,000  Level Minneapolis Center
08:13AM 44.6331 -91.2553 300° West 411 473 24,000  Level Minneapolis Center
08:14AM 44.7008 -91.4203 300° West 409 471 24,000 -780 Level Minneapolis Center
08:15AM 44.7567 -91.5564 300° West 406 467 22,500 -1,740 Descending Minneapolis Center
08:16AM 44.8097 -91.6886 300° West 397 457 20,500 -1,980 Descending Minneapolis Center
08:17AM 44.8619 -91.8200 299° West 390 449 18,500 -1,920 Descending Minneapolis Center
08:17AM 44.9103 -91.9167 305° West 388 447 17,300 -1,920 Descending FAA TRACON SMA TRACON (SMA)
08:18AM 44.9264 -91.9567 300° West 384 442 16,600 -1,980 Descending FAA TRACON SMA TRACON (SMA)
08:18AM 44.9428 -91.9958 301° West 380 437 16,000 -2,280 Descending FAA TRACON SMA TRACON (SMA)
08:18AM 44.9600 -92.0450 296° West 372 428 15,100 -2,400 Descending FAA TRACON SMA TRACON (SMA)
08:19AM 44.9756 -92.0844 299° West 373 429 14,400 -1,980 Descending FAA TRACON SMA TRACON (SMA)
08:19AM 44.9908 -92.1247 298° West 375 432 13,800 -2,280 Descending FAA TRACON SMA TRACON (SMA)
08:19AM 45.0097 -92.1742 298° West 378 435 12,900 -2,400 Descending FAA TRACON SMA TRACON (SMA)
08:20AM 45.0269 -92.2142 301° West 379 436 12,200 -2,220 Descending FAA TRACON SMA TRACON (SMA)
08:20AM 45.0444 -92.2639 296° West 375 432 11,400 -1,620 Descending FAA TRACON SMA TRACON (SMA)
08:20AM 45.0483 -92.3056 278° West 366 421 11,100 -600 Descending FAA TRACON SMA TRACON (SMA)
08:21AM 45.0442 -92.3472 262° West 354 407 11,000 -300 Descending FAA TRACON SMA TRACON (SMA)
08:21AM 45.0364 -92.3978 258° West 344 396 10,900  Descending FAA TRACON SMA TRACON (SMA)
08:21AM 45.0294 -92.4386 256° West 345 397 11,000 120 Climbing FAA TRACON SMA TRACON (SMA)
08:22AM 45.0236 -92.4797 259° West 347 399 11,000  Level FAA TRACON SMA TRACON (SMA)
08:22AM 45.0164 -92.5214 256° West 351 404 11,000  Level FAA TRACON SMA TRACON (SMA)
08:22AM 45.0072 -92.5733 256° West 356 410 11,000  Level FAA TRACON SMA TRACON (SMA)
08:23AM 45.0006 -92.6150 257° West 355 409 11,000 -180 Level FAA TRACON SMA TRACON (SMA)
08:23AM 44.9919 -92.6661 257° West 351 404 10,900  Descending FAA TRACON SMA TRACON (SMA)
08:23AM 44.9853 -92.7069 257° West 348 400 11,000 120 Climbing FAA TRACON SMA TRACON (SMA)
08:24AM 44.9778 -92.7481 256° West 348 400 11,000  Level FAA TRACON SMA TRACON (SMA)
08:24AM 44.9714 -92.7894 258° West 352 405 11,000  Level FAA TRACON SMA TRACON (SMA)
08:24AM 44.9625 -92.8414 256° West 354 407 11,000  Level FAA TRACON SMA TRACON (SMA)
08:25AM 44.9553 -92.8828 256° West 354 407 11,000 -300 Level FAA TRACON SMA TRACON (SMA)
08:25AM 44.9492 -92.9231 258° West 347 399 10,800 -780 Descending FAA TRACON SMA TRACON (SMA)
08:25AM 44.9414 -92.9694 257° West 322 371 10,500 -1,080 Descending FAA TRACON SMA TRACON (SMA)
08:26AM 44.9356 -93.0053 257° West 305 351 10,100 -1,080 Descending FAA TRACON SMA TRACON (SMA)
08:26AM 44.9286 -93.0467 257° West 284 327 9,800 -1,080 Descending FAA TRACON SMA TRACON (SMA)
08:26AM 44.9328 -93.0800 280° West 287 330 9,400 -1,200 Descending FAA TRACON SMA TRACON (SMA)
08:27AM 44.9461 -93.1089 303° West 290 334 9,000 -1,680 Descending FAA TRACON SMA TRACON (SMA)
08:27AM 44.9628 -93.1458 303° West 290 334 8,300 -1,800 Descending FAA TRACON SMA TRACON (SMA)
08:27AM 44.9758 -93.1742 303° West 282 325 7,800 -1,680 Descending FAA TRACON SMA TRACON (SMA)
08:28AM 44.9878 -93.2019 301° West 272 313 7,200 -1,980 Descending FAA TRACON SMA TRACON (SMA)
08:28AM 45.0022 -93.2350 302° West 259 298 6,500 -1,680 Descending FAA TRACON SMA TRACON (SMA)
08:28AM 45.0131 -93.2603 301° West 249 287 6,100 -780 Descending FAA TRACON SMA TRACON (SMA)
08:29AM 45.0258 -93.2883 303° West 225 259 6,000 -300 Descending FAA TRACON SMA TRACON (SMA)
08:29AM 45.0350 -93.3094 302° West 206 237 5,900 -300 Descending FAA TRACON SMA TRACON (SMA)
08:29AM 45.0439 -93.3283 304° West 193 222 5,800 -780 Descending FAA TRACON SMA TRACON (SMA)
08:30AM 45.0547 -93.3539 301° West 195 224 5,400 -1,200 Descending FAA TRACON SMA TRACON (SMA)
08:30AM 45.0594 -93.3758 287° West 199 229 5,000 -900 Descending FAA TRACON SMA TRACON (SMA)
08:30AM 45.0514 -93.3939 238° Southwest 197 227 4,800 -900 Descending FAA TRACON SMA TRACON (SMA)
08:31AM 45.0356 -93.4103 216° Southwest 183 211 4,400 -1,080 Descending FAA TRACON SMA TRACON (SMA)
08:31AM 45.0231 -93.4236 217° Southwest 179 206 4,100 -780 Descending FAA TRACON SMA TRACON (SMA)
08:31AM 45.0103 -93.4333 208° Southwest 179 206 3,900 -180 Descending FAA TRACON SMA TRACON (SMA)
08:32AM 44.9975 -93.4272 161° South 177 204 4,000 -480 Climbing FAA TRACON SMA TRACON (SMA)
08:32AM 44.9817 -93.4139 149° Southeast 169 194 3,600 -900 Descending FAA TRACON SMA TRACON (SMA)
08:32AM 44.9711 -93.4011 139° Southeast 168 193 3,400 -300 Descending FAA TRACON SMA TRACON (SMA)
08:33AM 44.9617 -93.3808 123° Southeast 161 185 3,400  Level FAA TRACON SMA TRACON (SMA)